sensor_id;sensor_type;location;lat;lon;timestamp;P1;durP1;ratioP1;P2;durP2;ratioP2
5217;SDS011;26539;51.064;6.346;2023-07-20T00:00:34;6.70;;;4.80;;
5217;SDS011;26539;51.064;6.346;2023-07-20T00:03:10;11.10;;;3.90;;
5217;SDS011;26539;51.064;6.346;2023-07-20T00:05:48;7.20;;;4.20;;
5217;SDS011;26539;51.064;6.346;2023-07-20T00:08:14;5.70;;;4.40;;
5217;SDS011;26539;51.064;6.346;2023-07-20T00:10:43;8.97;;;4.33;;
5217;SDS011;26539;51.064;6.346;2023-07-20T00:13:12;5.20;;;3.83;;
5217;SDS011;26539;51.064;6.346;2023-07-20T00:15:38;7.10;;;4.13;;
5217;SDS011;26539;51.064;6.346;2023-07-20T00:18:06;4.60;;;3.70;;
5217;SDS011;26539;51.064;6.346;2023-07-20T00:20:32;5.70;;;3.80;;
5217;SDS011;26539;51.064;6.346;2023-07-20T00:22:58;6.13;;;4.70;;
5217;SDS011;26539;51.064;6.346;2023-07-20T00:25:24;7.70;;;4.43;;
5217;SDS011;26539;51.064;6.346;2023-07-20T00:27:50;5.43;;;4.33;;
5217;SDS011;26539;51.064;6.346;2023-07-20T00:30:19;5.10;;;3.80;;
5217;SDS011;26539;51.064;6.346;2023-07-20T00:32:44;4.87;;;3.80;;
5217;SDS011;26539;51.064;6.346;2023-07-20T00:35:10;4.00;;;3.13;;
5217;SDS011;26539;51.064;6.346;2023-07-20T00:37:36;10.93;;;3.53;;
5217;SDS011;26539;51.064;6.346;2023-07-20T00:40:03;4.77;;;3.03;;
5217;SDS011;26539;51.064;6.346;2023-07-20T00:42:32;4.43;;;3.47;;
5217;SDS011;26539;51.064;6.346;2023-07-20T00:45:01;3.53;;;3.00;;
5217;SDS011;26539;51.064;6.346;2023-07-20T00:47:31;9.53;;;3.43;;
5217;SDS011;26539;51.064;6.346;2023-07-20T00:49:57;6.23;;;3.10;;
5217;SDS011;26539;51.064;6.346;2023-07-20T00:52:23;5.37;;;3.07;;
5217;SDS011;26539;51.064;6.346;2023-07-20T00:54:50;6.83;;;3.27;;
5217;SDS011;26539;51.064;6.346;2023-07-20T00:57:17;4.07;;;2.80;;
5217;SDS011;26539;51.064;6.346;2023-07-20T00:59:44;3.80;;;2.80;;
5217;SDS011;26539;51.064;6.346;2023-07-20T01:02:09;4.60;;;3.40;;
5217;SDS011;26539;51.064;6.346;2023-07-20T01:04:35;3.70;;;2.83;;
5217;SDS011;26539;51.064;6.346;2023-07-20T01:07:13;3.60;;;2.83;;
5217;SDS011;26539;51.064;6.346;2023-07-20T01:10:12;3.80;;;2.73;;
5217;SDS011;26539;51.064;6.346;2023-07-20T01:12:54;4.50;;;4.00;;
5217;SDS011;26539;51.064;6.346;2023-07-20T01:15:21;5.27;;;3.10;;
5217;SDS011;26539;51.064;6.346;2023-07-20T01:17:46;6.20;;;3.93;;
5217;SDS011;26539;51.064;6.346;2023-07-20T01:20:13;7.63;;;4.93;;
5217;SDS011;26539;51.064;6.346;2023-07-20T01:33:52;6.70;;;4.10;;
5217;SDS011;26539;51.064;6.346;2023-07-20T01:36:34;5.73;;;4.40;;
5217;SDS011;26539;51.064;6.346;2023-07-20T01:39:12;5.83;;;4.20;;
5217;SDS011;26539;51.064;6.346;2023-07-20T01:41:39;6.00;;;4.80;;
5217;SDS011;26539;51.064;6.346;2023-07-20T01:44:05;5.90;;;4.60;;
5217;SDS011;26539;51.064;6.346;2023-07-20T01:46:30;5.03;;;3.93;;
5217;SDS011;26539;51.064;6.346;2023-07-20T01:48:57;8.97;;;4.77;;
5217;SDS011;26539;51.064;6.346;2023-07-20T01:51:23;5.50;;;4.43;;
5217;SDS011;26539;51.064;6.346;2023-07-20T01:53:49;6.53;;;4.30;;
5217;SDS011;26539;51.064;6.346;2023-07-20T01:56:14;7.87;;;5.00;;
5217;SDS011;26539;51.064;6.346;2023-07-20T01:58:40;5.90;;;4.77;;
5217;SDS011;26539;51.064;6.346;2023-07-20T02:01:05;5.60;;;4.97;;
5217;SDS011;26539;51.064;6.346;2023-07-20T02:03:31;8.17;;;4.80;;
5217;SDS011;26539;51.064;6.346;2023-07-20T02:05:57;8.07;;;4.87;;
5217;SDS011;26539;51.064;6.346;2023-07-20T02:08:22;7.40;;;5.07;;
5217;SDS011;26539;51.064;6.346;2023-07-20T02:10:51;7.90;;;4.60;;
5217;SDS011;26539;51.064;6.346;2023-07-20T02:13:17;10.63;;;5.27;;
5217;SDS011;26539;51.064;6.346;2023-07-20T02:15:43;9.67;;;5.57;;
5217;SDS011;26539;51.064;6.346;2023-07-20T02:18:08;9.83;;;4.70;;
5217;SDS011;26539;51.064;6.346;2023-07-20T02:20:34;7.47;;;4.97;;
5217;SDS011;26539;51.064;6.346;2023-07-20T02:23:00;7.03;;;4.37;;
5217;SDS011;26539;51.064;6.346;2023-07-20T02:25:26;8.90;;;4.93;;
5217;SDS011;26539;51.064;6.346;2023-07-20T02:27:52;6.30;;;4.50;;
5217;SDS011;26539;51.064;6.346;2023-07-20T02:30:17;6.57;;;4.00;;
5217;SDS011;26539;51.064;6.346;2023-07-20T02:32:43;7.60;;;5.20;;
5217;SDS011;26539;51.064;6.346;2023-07-20T02:35:13;8.73;;;5.10;;
5217;SDS011;26539;51.064;6.346;2023-07-20T02:37:39;10.83;;;4.47;;
5217;SDS011;26539;51.064;6.346;2023-07-20T02:40:05;8.37;;;4.07;;
5217;SDS011;26539;51.064;6.346;2023-07-20T02:42:32;8.50;;;4.20;;
5217;SDS011;26539;51.064;6.346;2023-07-20T02:45:02;5.53;;;4.00;;
5217;SDS011;26539;51.064;6.346;2023-07-20T02:47:29;8.00;;;4.60;;
5217;SDS011;26539;51.064;6.346;2023-07-20T02:49:54;10.20;;;6.00;;
5217;SDS011;26539;51.064;6.346;2023-07-20T02:52:20;10.83;;;4.77;;
5217;SDS011;26539;51.064;6.346;2023-07-20T02:54:46;8.00;;;4.70;;
5217;SDS011;26539;51.064;6.346;2023-07-20T02:57:11;8.83;;;4.23;;
5217;SDS011;26539;51.064;6.346;2023-07-20T02:59:37;5.23;;;4.40;;
5217;SDS011;26539;51.064;6.346;2023-07-20T03:02:06;12.53;;;5.00;;
5217;SDS011;26539;51.064;6.346;2023-07-20T03:04:37;11.17;;;5.03;;
5217;SDS011;26539;51.064;6.346;2023-07-20T03:07:05;8.47;;;4.20;;
5217;SDS011;26539;51.064;6.346;2023-07-20T03:09:35;11.30;;;4.63;;
5217;SDS011;26539;51.064;6.346;2023-07-20T03:12:00;9.00;;;4.80;;
5217;SDS011;26539;51.064;6.346;2023-07-20T03:14:29;8.77;;;4.40;;
5217;SDS011;26539;51.064;6.346;2023-07-20T03:16:55;6.20;;;4.00;;
5217;SDS011;26539;51.064;6.346;2023-07-20T03:19:24;7.63;;;4.90;;
5217;SDS011;26539;51.064;6.346;2023-07-20T03:21:49;9.40;;;4.50;;
5217;SDS011;26539;51.064;6.346;2023-07-20T03:24:15;12.20;;;4.90;;
5217;SDS011;26539;51.064;6.346;2023-07-20T03:26:41;7.03;;;4.47;;
5217;SDS011;26539;51.064;6.346;2023-07-20T03:29:09;8.70;;;4.17;;
5217;SDS011;26539;51.064;6.346;2023-07-20T03:31:35;5.37;;;3.90;;
5217;SDS011;26539;51.064;6.346;2023-07-20T03:34:03;7.83;;;4.70;;
5217;SDS011;26539;51.064;6.346;2023-07-20T03:36:30;11.40;;;4.77;;
5217;SDS011;26539;51.064;6.346;2023-07-20T03:38:56;5.90;;;4.50;;
5217;SDS011;26539;51.064;6.346;2023-07-20T03:41:22;9.80;;;5.07;;
5217;SDS011;26539;51.064;6.346;2023-07-20T03:43:47;11.00;;;4.93;;
5217;SDS011;26539;51.064;6.346;2023-07-20T03:46:13;10.37;;;5.07;;
5217;SDS011;26539;51.064;6.346;2023-07-20T03:48:39;8.13;;;4.87;;
5217;SDS011;26539;51.064;6.346;2023-07-20T03:51:05;12.13;;;4.90;;
5217;SDS011;26539;51.064;6.346;2023-07-20T03:53:30;7.10;;;5.00;;
5217;SDS011;26539;51.064;6.346;2023-07-20T03:55:56;10.73;;;5.57;;
5217;SDS011;26539;51.064;6.346;2023-07-20T03:58:22;7.13;;;4.30;;
5217;SDS011;26539;51.064;6.346;2023-07-20T04:00:49;9.70;;;5.43;;
5217;SDS011;26539;51.064;6.346;2023-07-20T04:03:16;10.83;;;4.23;;
5217;SDS011;26539;51.064;6.346;2023-07-20T04:05:42;11.40;;;5.30;;
5217;SDS011;26539;51.064;6.346;2023-07-20T04:08:09;10.67;;;6.10;;
5217;SDS011;26539;51.064;6.346;2023-07-20T04:10:36;10.53;;;5.30;;
5217;SDS011;26539;51.064;6.346;2023-07-20T04:13:02;12.47;;;6.40;;
5217;SDS011;26539;51.064;6.346;2023-07-20T04:15:28;14.43;;;6.33;;
5217;SDS011;26539;51.064;6.346;2023-07-20T04:17:53;8.77;;;5.30;;
5217;SDS011;26539;51.064;6.346;2023-07-20T04:20:21;11.47;;;5.70;;
5217;SDS011;26539;51.064;6.346;2023-07-20T04:22:47;11.70;;;5.87;;
5217;SDS011;26539;51.064;6.346;2023-07-20T04:25:13;13.40;;;6.27;;
5217;SDS011;26539;51.064;6.346;2023-07-20T04:27:38;9.10;;;6.10;;
5217;SDS011;26539;51.064;6.346;2023-07-20T04:30:06;9.20;;;5.67;;
5217;SDS011;26539;51.064;6.346;2023-07-20T04:32:35;11.33;;;5.80;;
5217;SDS011;26539;51.064;6.346;2023-07-20T04:35:01;13.40;;;6.50;;
5217;SDS011;26539;51.064;6.346;2023-07-20T04:37:30;10.23;;;5.20;;
5217;SDS011;26539;51.064;6.346;2023-07-20T04:39:59;16.30;;;6.40;;
5217;SDS011;26539;51.064;6.346;2023-07-20T04:42:25;9.20;;;6.00;;
5217;SDS011;26539;51.064;6.346;2023-07-20T04:44:51;11.73;;;7.20;;
5217;SDS011;26539;51.064;6.346;2023-07-20T04:47:16;10.03;;;7.53;;
5217;SDS011;26539;51.064;6.346;2023-07-20T04:49:42;16.27;;;7.53;;
5217;SDS011;26539;51.064;6.346;2023-07-20T04:52:07;13.20;;;6.90;;
5217;SDS011;26539;51.064;6.346;2023-07-20T04:54:33;9.30;;;7.50;;
5217;SDS011;26539;51.064;6.346;2023-07-20T04:56:58;12.70;;;7.03;;
5217;SDS011;26539;51.064;6.346;2023-07-20T04:59:24;14.47;;;7.73;;
5217;SDS011;26539;51.064;6.346;2023-07-20T05:01:50;14.17;;;6.90;;
5217;SDS011;26539;51.064;6.346;2023-07-20T05:04:15;14.20;;;8.93;;
5217;SDS011;26539;51.064;6.346;2023-07-20T05:06:43;10.83;;;7.90;;
5217;SDS011;26539;51.064;6.346;2023-07-20T05:09:09;12.57;;;10.00;;
5217;SDS011;26539;51.064;6.346;2023-07-20T05:11:35;16.30;;;10.50;;
5217;SDS011;26539;51.064;6.346;2023-07-20T05:14:00;18.33;;;10.07;;
5217;SDS011;26539;51.064;6.346;2023-07-20T05:16:26;14.40;;;10.60;;
5217;SDS011;26539;51.064;6.346;2023-07-20T05:18:51;14.43;;;11.57;;
5217;SDS011;26539;51.064;6.346;2023-07-20T05:21:17;14.70;;;11.50;;
5217;SDS011;26539;51.064;6.346;2023-07-20T05:23:43;17.23;;;11.70;;
5217;SDS011;26539;51.064;6.346;2023-07-20T05:26:09;21.87;;;12.00;;
5217;SDS011;26539;51.064;6.346;2023-07-20T05:28:34;17.80;;;12.87;;
5217;SDS011;26539;51.064;6.346;2023-07-20T05:31:02;15.77;;;11.90;;
5217;SDS011;26539;51.064;6.346;2023-07-20T05:33:28;17.13;;;12.00;;
5217;SDS011;26539;51.064;6.346;2023-07-20T05:35:54;18.03;;;13.77;;
5217;SDS011;26539;51.064;6.346;2023-07-20T05:38:19;15.23;;;12.73;;
5217;SDS011;26539;51.064;6.346;2023-07-20T05:40:47;26.27;;;12.80;;
5217;SDS011;26539;51.064;6.346;2023-07-20T05:43:13;13.53;;;12.13;;
5217;SDS011;26539;51.064;6.346;2023-07-20T05:45:42;14.77;;;11.80;;
5217;SDS011;26539;51.064;6.346;2023-07-20T05:48:08;15.07;;;11.77;;
5217;SDS011;26539;51.064;6.346;2023-07-20T05:50:41;20.03;;;11.90;;
5217;SDS011;26539;51.064;6.346;2023-07-20T05:53:09;13.53;;;11.27;;
5217;SDS011;26539;51.064;6.346;2023-07-20T05:55:34;14.23;;;11.30;;
5217;SDS011;26539;51.064;6.346;2023-07-20T05:58:00;13.37;;;10.30;;
5217;SDS011;26539;51.064;6.346;2023-07-20T06:00:26;14.17;;;11.33;;
5217;SDS011;26539;51.064;6.346;2023-07-20T06:02:52;14.37;;;11.57;;
5217;SDS011;26539;51.064;6.346;2023-07-20T06:05:19;15.53;;;12.00;;
5217;SDS011;26539;51.064;6.346;2023-07-20T06:07:46;16.67;;;11.97;;
5217;SDS011;26539;51.064;6.346;2023-07-20T06:10:11;15.83;;;12.20;;
5217;SDS011;26539;51.064;6.346;2023-07-20T06:12:37;12.63;;;11.33;;
5217;SDS011;26539;51.064;6.346;2023-07-20T06:15:04;12.13;;;9.70;;
5217;SDS011;26539;51.064;6.346;2023-07-20T06:17:30;12.70;;;8.97;;
5217;SDS011;26539;51.064;6.346;2023-07-20T06:19:56;10.30;;;9.10;;
5217;SDS011;26539;51.064;6.346;2023-07-20T06:22:24;12.00;;;9.33;;
5217;SDS011;26539;51.064;6.346;2023-07-20T06:24:50;11.43;;;9.90;;
5217;SDS011;26539;51.064;6.346;2023-07-20T06:27:15;16.93;;;10.80;;
5217;SDS011;26539;51.064;6.346;2023-07-20T06:29:43;12.13;;;10.00;;
5217;SDS011;26539;51.064;6.346;2023-07-20T06:32:18;12.37;;;10.57;;
5217;SDS011;26539;51.064;6.346;2023-07-20T06:34:43;13.50;;;11.10;;
5217;SDS011;26539;51.064;6.346;2023-07-20T06:37:09;17.33;;;11.47;;
5217;SDS011;26539;51.064;6.346;2023-07-20T06:39:36;11.50;;;10.30;;
5217;SDS011;26539;51.064;6.346;2023-07-20T06:42:07;11.03;;;9.80;;
5217;SDS011;26539;51.064;6.346;2023-07-20T06:44:43;13.00;;;10.63;;
5217;SDS011;26539;51.064;6.346;2023-07-20T06:47:27;10.40;;;9.37;;
5217;SDS011;26539;51.064;6.346;2023-07-20T06:49:53;9.87;;;8.80;;
5217;SDS011;26539;51.064;6.346;2023-07-20T06:52:26;12.43;;;9.77;;
5217;SDS011;26539;51.064;6.346;2023-07-20T06:54:55;11.70;;;9.50;;
5217;SDS011;26539;51.064;6.346;2023-07-20T06:57:25;8.20;;;7.23;;
5217;SDS011;26539;51.064;6.346;2023-07-20T07:00:01;8.73;;;6.70;;
5217;SDS011;26539;51.064;6.346;2023-07-20T07:02:26;6.43;;;5.83;;
5217;SDS011;26539;51.064;6.346;2023-07-20T07:04:52;6.90;;;5.13;;
5217;SDS011;26539;51.064;6.346;2023-07-20T07:07:17;6.20;;;4.03;;
5217;SDS011;26539;51.064;6.346;2023-07-20T07:09:43;4.13;;;3.70;;
5217;SDS011;26539;51.064;6.346;2023-07-20T07:12:08;4.90;;;4.50;;
5217;SDS011;26539;51.064;6.346;2023-07-20T07:14:34;5.40;;;4.10;;
5217;SDS011;26539;51.064;6.346;2023-07-20T07:17:00;4.80;;;4.30;;
5217;SDS011;26539;51.064;6.346;2023-07-20T07:19:26;5.33;;;4.83;;
5217;SDS011;26539;51.064;6.346;2023-07-20T07:21:51;6.17;;;5.20;;
5217;SDS011;26539;51.064;6.346;2023-07-20T07:24:17;11.10;;;6.93;;
5217;SDS011;26539;51.064;6.346;2023-07-20T07:26:42;10.03;;;7.63;;
5217;SDS011;26539;51.064;6.346;2023-07-20T07:29:09;8.13;;;7.33;;
5217;SDS011;26539;51.064;6.346;2023-07-20T07:31:34;8.60;;;7.77;;
5217;SDS011;26539;51.064;6.346;2023-07-20T07:34:03;9.07;;;7.60;;
5217;SDS011;26539;51.064;6.346;2023-07-20T07:36:30;9.30;;;7.67;;
5217;SDS011;26539;51.064;6.346;2023-07-20T07:38:56;8.67;;;7.87;;
5217;SDS011;26539;51.064;6.346;2023-07-20T07:41:22;9.00;;;8.07;;
5217;SDS011;26539;51.064;6.346;2023-07-20T07:43:50;10.70;;;6.87;;
5217;SDS011;26539;51.064;6.346;2023-07-20T07:46:18;4.30;;;3.73;;
5217;SDS011;26539;51.064;6.346;2023-07-20T07:48:44;4.67;;;4.20;;
5217;SDS011;26539;51.064;6.346;2023-07-20T07:51:15;6.20;;;4.10;;
5217;SDS011;26539;51.064;6.346;2023-07-20T07:53:43;5.30;;;4.80;;
5217;SDS011;26539;51.064;6.346;2023-07-20T07:56:32;5.70;;;5.10;;
5217;SDS011;26539;51.064;6.346;2023-07-20T07:59:00;6.23;;;5.70;;
5217;SDS011;26539;51.064;6.346;2023-07-20T08:01:27;7.20;;;6.57;;
5217;SDS011;26539;51.064;6.346;2023-07-20T08:03:53;7.03;;;6.53;;
5217;SDS011;26539;51.064;6.346;2023-07-20T08:06:19;6.33;;;5.80;;
5217;SDS011;26539;51.064;6.346;2023-07-20T08:08:44;6.83;;;6.17;;
5217;SDS011;26539;51.064;6.346;2023-07-20T08:11:10;7.17;;;6.50;;
5217;SDS011;26539;51.064;6.346;2023-07-20T08:13:36;6.20;;;5.70;;
5217;SDS011;26539;51.064;6.346;2023-07-20T08:16:04;4.07;;;3.77;;
5217;SDS011;26539;51.064;6.346;2023-07-20T08:18:32;3.73;;;3.43;;
5217;SDS011;26539;51.064;6.346;2023-07-20T08:21:03;5.50;;;3.07;;
5217;SDS011;26539;51.064;6.346;2023-07-20T08:23:29;4.57;;;3.50;;
5217;SDS011;26539;51.064;6.346;2023-07-20T08:32:46;4.67;;;4.20;;
5217;SDS011;26539;51.064;6.346;2023-07-20T08:35:17;4.27;;;2.97;;
5217;SDS011;26539;51.064;6.346;2023-07-20T08:38:37;4.47;;;3.30;;
5217;SDS011;26539;51.064;6.346;2023-07-20T08:41:30;3.63;;;3.13;;
5217;SDS011;26539;51.064;6.346;2023-07-20T09:35:39;2.50;;;2.23;;
5217;SDS011;26539;51.064;6.346;2023-07-20T10:35:31;1.83;;;1.57;;
5217;SDS011;26539;51.064;6.346;2023-07-20T10:39:08;7.60;;;1.97;;
5217;SDS011;26539;51.064;6.346;2023-07-20T10:42:34;2.40;;;1.33;;
5217;SDS011;26539;51.064;6.346;2023-07-20T10:51:47;1.40;;;1.20;;
5217;SDS011;26539;51.064;6.346;2023-07-20T10:54:46;2.70;;;1.20;;
5217;SDS011;26539;51.064;6.346;2023-07-20T10:57:36;1.47;;;1.27;;
5217;SDS011;26539;51.064;6.346;2023-07-20T11:00:32;2.10;;;1.00;;
5217;SDS011;26539;51.064;6.346;2023-07-20T11:09:03;1.80;;;0.80;;
5217;SDS011;26539;51.064;6.346;2023-07-20T11:11:51;1.87;;;0.90;;
5217;SDS011;26539;51.064;6.346;2023-07-20T11:15:05;3.17;;;1.07;;
5217;SDS011;26539;51.064;6.346;2023-07-20T11:20:39;2.27;;;1.00;;
5217;SDS011;26539;51.064;6.346;2023-07-20T11:44:59;2.27;;;1.30;;
5217;SDS011;26539;51.064;6.346;2023-07-20T11:47:53;1.57;;;0.90;;
5217;SDS011;26539;51.064;6.346;2023-07-20T11:50:38;3.10;;;1.00;;
5217;SDS011;26539;51.064;6.346;2023-07-20T12:13:41;2.37;;;1.10;;
5217;SDS011;26539;51.064;6.346;2023-07-20T12:23:19;1.80;;;0.97;;
5217;SDS011;26539;51.064;6.346;2023-07-20T12:29:26;2.47;;;0.80;;
5217;SDS011;26539;51.064;6.346;2023-07-20T12:32:10;1.90;;;1.00;;
5217;SDS011;26539;51.064;6.346;2023-07-20T12:37:41;1.60;;;1.00;;
5217;SDS011;26539;51.064;6.346;2023-07-20T12:40:34;2.27;;;0.97;;
5217;SDS011;26539;51.064;6.346;2023-07-20T12:44:06;1.70;;;0.90;;
5217;SDS011;26539;51.064;6.346;2023-07-20T12:46:52;2.00;;;1.40;;
5217;SDS011;26539;51.064;6.346;2023-07-20T12:49:26;3.40;;;1.40;;
5217;SDS011;26539;51.064;6.346;2023-07-20T12:54:56;1.47;;;0.97;;
5217;SDS011;26539;51.064;6.346;2023-07-20T12:57:29;2.50;;;1.43;;
5217;SDS011;26539;51.064;6.346;2023-07-20T12:59:55;1.90;;;1.17;;
5217;SDS011;26539;51.064;6.346;2023-07-20T13:06:02;3.47;;;1.30;;
5217;SDS011;26539;51.064;6.346;2023-07-20T13:18:41;1.50;;;1.17;;
5217;SDS011;26539;51.064;6.346;2023-07-20T13:21:06;3.40;;;1.40;;
5217;SDS011;26539;51.064;6.346;2023-07-20T13:23:35;2.57;;;1.30;;
5217;SDS011;26539;51.064;6.346;2023-07-20T13:26:01;4.13;;;1.47;;
5217;SDS011;26539;51.064;6.346;2023-07-20T13:28:28;1.83;;;1.33;;
5217;SDS011;26539;51.064;6.346;2023-07-20T13:30:54;4.63;;;1.67;;
5217;SDS011;26539;51.064;6.346;2023-07-20T13:33:19;4.13;;;1.43;;
5217;SDS011;26539;51.064;6.346;2023-07-20T13:35:45;4.37;;;1.40;;
5217;SDS011;26539;51.064;6.346;2023-07-20T13:38:11;3.40;;;1.13;;
5217;SDS011;26539;51.064;6.346;2023-07-20T13:40:37;3.17;;;1.80;;
5217;SDS011;26539;51.064;6.346;2023-07-20T13:43:03;1.67;;;1.27;;
5217;SDS011;26539;51.064;6.346;2023-07-20T13:45:29;2.20;;;1.40;;
5217;SDS011;26539;51.064;6.346;2023-07-20T13:47:54;2.50;;;1.20;;
5217;SDS011;26539;51.064;6.346;2023-07-20T13:50:20;2.20;;;1.43;;
5217;SDS011;26539;51.064;6.346;2023-07-20T13:52:46;3.40;;;1.30;;
5217;SDS011;26539;51.064;6.346;2023-07-20T13:55:12;1.60;;;1.10;;
5217;SDS011;26539;51.064;6.346;2023-07-20T13:57:37;1.63;;;1.20;;
5217;SDS011;26539;51.064;6.346;2023-07-20T14:00:03;2.07;;;1.30;;
5217;SDS011;26539;51.064;6.346;2023-07-20T14:02:29;3.03;;;1.30;;
5217;SDS011;26539;51.064;6.346;2023-07-20T14:04:55;1.67;;;1.30;;
5217;SDS011;26539;51.064;6.346;2023-07-20T14:07:21;2.37;;;1.20;;
5217;SDS011;26539;51.064;6.346;2023-07-20T14:09:47;3.40;;;1.20;;
5217;SDS011;26539;51.064;6.346;2023-07-20T14:12:13;1.50;;;1.20;;
5217;SDS011;26539;51.064;6.346;2023-07-20T14:14:39;5.77;;;1.70;;
5217;SDS011;26539;51.064;6.346;2023-07-20T14:17:06;3.83;;;1.50;;
5217;SDS011;26539;51.064;6.346;2023-07-20T14:19:31;9.80;;;1.50;;
5217;SDS011;26539;51.064;6.346;2023-07-20T14:21:57;3.97;;;1.20;;
5217;SDS011;26539;51.064;6.346;2023-07-20T14:24:24;3.27;;;1.50;;
5217;SDS011;26539;51.064;6.346;2023-07-20T14:26:52;1.53;;;1.40;;
5217;SDS011;26539;51.064;6.346;2023-07-20T14:29:19;1.60;;;1.37;;
5217;SDS011;26539;51.064;6.346;2023-07-20T14:31:45;2.90;;;1.20;;
5217;SDS011;26539;51.064;6.346;2023-07-20T14:34:15;2.63;;;1.50;;
5217;SDS011;26539;51.064;6.346;2023-07-20T14:36:41;6.60;;;2.03;;
5217;SDS011;26539;51.064;6.346;2023-07-20T14:39:07;10.67;;;2.87;;
5217;SDS011;26539;51.064;6.346;2023-07-20T14:41:33;5.87;;;2.30;;
5217;SDS011;26539;51.064;6.346;2023-07-20T14:43:59;1.80;;;1.27;;
5217;SDS011;26539;51.064;6.346;2023-07-20T14:46:27;2.70;;;1.40;;
5217;SDS011;26539;51.064;6.346;2023-07-20T14:48:52;1.53;;;1.30;;
5217;SDS011;26539;51.064;6.346;2023-07-20T14:51:18;1.70;;;1.43;;
5217;SDS011;26539;51.064;6.346;2023-07-20T14:53:44;2.03;;;1.27;;
5217;SDS011;26539;51.064;6.346;2023-07-20T14:56:09;4.50;;;1.47;;
5217;SDS011;26539;51.064;6.346;2023-07-20T14:58:38;1.70;;;1.30;;
5217;SDS011;26539;51.064;6.346;2023-07-20T15:01:04;4.80;;;1.40;;
5217;SDS011;26539;51.064;6.346;2023-07-20T15:03:30;2.90;;;1.20;;
5217;SDS011;26539;51.064;6.346;2023-07-20T15:06:04;1.73;;;1.07;;
5217;SDS011;26539;51.064;6.346;2023-07-20T15:08:37;1.50;;;1.07;;
5217;SDS011;26539;51.064;6.346;2023-07-20T15:11:03;2.07;;;1.10;;
5217;SDS011;26539;51.064;6.346;2023-07-20T15:13:29;4.87;;;1.20;;
5217;SDS011;26539;51.064;6.346;2023-07-20T15:15:57;1.63;;;1.13;;
5217;SDS011;26539;51.064;6.346;2023-07-20T15:18:22;3.50;;;1.53;;
5217;SDS011;26539;51.064;6.346;2023-07-20T15:20:48;2.23;;;1.40;;
5217;SDS011;26539;51.064;6.346;2023-07-20T15:23:21;1.37;;;0.90;;
5217;SDS011;26539;51.064;6.346;2023-07-20T15:25:52;5.23;;;1.03;;
5217;SDS011;26539;51.064;6.346;2023-07-20T15:28:18;1.70;;;1.10;;
5217;SDS011;26539;51.064;6.346;2023-07-20T15:30:43;1.40;;;1.17;;
5217;SDS011;26539;51.064;6.346;2023-07-20T15:33:09;2.63;;;1.20;;
5217;SDS011;26539;51.064;6.346;2023-07-20T15:35:35;1.83;;;1.20;;
5217;SDS011;26539;51.064;6.346;2023-07-20T15:38:01;1.40;;;0.97;;
5217;SDS011;26539;51.064;6.346;2023-07-20T15:40:27;1.60;;;1.20;;
5217;SDS011;26539;51.064;6.346;2023-07-20T15:42:52;3.57;;;1.03;;
5217;SDS011;26539;51.064;6.346;2023-07-20T15:45:18;1.70;;;0.87;;
5217;SDS011;26539;51.064;6.346;2023-07-20T15:47:44;2.60;;;1.13;;
5217;SDS011;26539;51.064;6.346;2023-07-20T15:50:10;2.10;;;0.90;;
5217;SDS011;26539;51.064;6.346;2023-07-20T15:52:36;1.70;;;1.00;;
5217;SDS011;26539;51.064;6.346;2023-07-20T15:55:01;1.70;;;0.80;;
5217;SDS011;26539;51.064;6.346;2023-07-20T15:57:29;3.00;;;1.00;;
5217;SDS011;26539;51.064;6.346;2023-07-20T15:59:55;7.90;;;1.23;;
5217;SDS011;26539;51.064;6.346;2023-07-20T16:02:22;1.50;;;1.07;;
5217;SDS011;26539;51.064;6.346;2023-07-20T16:04:48;2.00;;;1.00;;
5217;SDS011;26539;51.064;6.346;2023-07-20T16:07:16;1.60;;;1.10;;
5217;SDS011;26539;51.064;6.346;2023-07-20T16:09:42;3.10;;;1.40;;
5217;SDS011;26539;51.064;6.346;2023-07-20T16:12:10;2.73;;;1.00;;
5217;SDS011;26539;51.064;6.346;2023-07-20T16:14:41;2.43;;;1.10;;
5217;SDS011;26539;51.064;6.346;2023-07-20T16:17:15;1.60;;;1.13;;
5217;SDS011;26539;51.064;6.346;2023-07-20T16:19:40;2.13;;;1.10;;
5217;SDS011;26539;51.064;6.346;2023-07-20T16:22:13;1.90;;;0.87;;
5217;SDS011;26539;51.064;6.346;2023-07-20T16:24:39;2.23;;;1.33;;
5217;SDS011;26539;51.064;6.346;2023-07-20T16:27:07;2.37;;;1.10;;
5217;SDS011;26539;51.064;6.346;2023-07-20T16:29:33;1.83;;;1.30;;
5217;SDS011;26539;51.064;6.346;2023-07-20T16:31:59;1.60;;;1.20;;
5217;SDS011;26539;51.064;6.346;2023-07-20T16:34:27;1.80;;;1.13;;
5217;SDS011;26539;51.064;6.346;2023-07-20T16:37:01;1.77;;;1.00;;
5217;SDS011;26539;51.064;6.346;2023-07-20T16:39:28;3.10;;;0.97;;
5217;SDS011;26539;51.064;6.346;2023-07-20T16:41:53;1.60;;;1.20;;
5217;SDS011;26539;51.064;6.346;2023-07-20T16:44:19;1.30;;;1.00;;
5217;SDS011;26539;51.064;6.346;2023-07-20T16:46:44;4.90;;;1.13;;
5217;SDS011;26539;51.064;6.346;2023-07-20T16:49:13;2.07;;;1.20;;
5217;SDS011;26539;51.064;6.346;2023-07-20T16:51:54;1.60;;;1.03;;
5217;SDS011;26539;51.064;6.346;2023-07-20T16:54:31;3.17;;;1.20;;
5217;SDS011;26539;51.064;6.346;2023-07-20T16:57:09;1.70;;;1.20;;
5217;SDS011;26539;51.064;6.346;2023-07-20T16:59:35;2.33;;;1.20;;
5217;SDS011;26539;51.064;6.346;2023-07-20T17:02:09;1.67;;;1.17;;
5217;SDS011;26539;51.064;6.346;2023-07-20T17:05:01;1.70;;;1.40;;
5217;SDS011;26539;51.064;6.346;2023-07-20T17:07:27;5.37;;;1.20;;
5217;SDS011;26539;51.064;6.346;2023-07-20T17:10:05;1.63;;;1.17;;
5217;SDS011;26539;51.064;6.346;2023-07-20T17:12:41;2.40;;;1.07;;
5217;SDS011;26539;51.064;6.346;2023-07-20T17:15:12;4.23;;;1.00;;
5217;SDS011;26539;51.064;6.346;2023-07-20T17:17:48;6.50;;;1.30;;
5217;SDS011;26539;51.064;6.346;2023-07-20T17:20:19;4.00;;;1.60;;
5217;SDS011;26539;51.064;6.346;2023-07-20T17:22:50;4.03;;;1.13;;
5217;SDS011;26539;51.064;6.346;2023-07-20T17:25:16;1.73;;;1.20;;
5217;SDS011;26539;51.064;6.346;2023-07-20T17:27:49;1.73;;;1.00;;
5217;SDS011;26539;51.064;6.346;2023-07-20T17:30:18;3.13;;;1.20;;
5217;SDS011;26539;51.064;6.346;2023-07-20T17:32:50;1.93;;;1.37;;
5217;SDS011;26539;51.064;6.346;2023-07-20T17:35:29;2.50;;;1.30;;
5217;SDS011;26539;51.064;6.346;2023-07-20T17:41:02;3.43;;;1.30;;
5217;SDS011;26539;51.064;6.346;2023-07-20T17:43:37;3.40;;;1.40;;
5217;SDS011;26539;51.064;6.346;2023-07-20T17:46:06;6.30;;;1.43;;
5217;SDS011;26539;51.064;6.346;2023-07-20T17:48:32;2.43;;;1.23;;
5217;SDS011;26539;51.064;6.346;2023-07-20T17:50:58;1.60;;;1.00;;
5217;SDS011;26539;51.064;6.346;2023-07-20T17:53:26;2.90;;;1.37;;
5217;SDS011;26539;51.064;6.346;2023-07-20T17:55:55;3.83;;;1.40;;
5217;SDS011;26539;51.064;6.346;2023-07-20T17:58:21;4.10;;;1.67;;
5217;SDS011;26539;51.064;6.346;2023-07-20T18:00:49;8.23;;;1.77;;
5217;SDS011;26539;51.064;6.346;2023-07-20T18:03:17;4.23;;;1.37;;
5217;SDS011;26539;51.064;6.346;2023-07-20T18:05:48;1.50;;;1.10;;
5217;SDS011;26539;51.064;6.346;2023-07-20T18:08:14;3.47;;;1.20;;
5217;SDS011;26539;51.064;6.346;2023-07-20T18:10:39;6.67;;;1.43;;
5217;SDS011;26539;51.064;6.346;2023-07-20T18:13:05;3.27;;;1.33;;
5217;SDS011;26539;51.064;6.346;2023-07-20T18:25:44;6.30;;;1.20;;
5217;SDS011;26539;51.064;6.346;2023-07-20T18:28:13;4.13;;;1.37;;
5217;SDS011;26539;51.064;6.346;2023-07-20T18:30:49;5.03;;;1.20;;
5217;SDS011;26539;51.064;6.346;2023-07-20T18:33:35;1.87;;;1.10;;
5217;SDS011;26539;51.064;6.346;2023-07-20T18:36:12;2.27;;;1.40;;
5217;SDS011;26539;51.064;6.346;2023-07-20T18:39:19;2.20;;;1.23;;
5217;SDS011;26539;51.064;6.346;2023-07-20T18:41:44;1.50;;;1.30;;
5217;SDS011;26539;51.064;6.346;2023-07-20T18:44:13;1.80;;;1.13;;
5217;SDS011;26539;51.064;6.346;2023-07-20T18:46:47;6.00;;;1.30;;
5217;SDS011;26539;51.064;6.346;2023-07-20T18:49:39;2.00;;;1.10;;
5217;SDS011;26539;51.064;6.346;2023-07-20T18:52:25;5.03;;;1.20;;
5217;SDS011;26539;51.064;6.346;2023-07-20T18:54:54;3.70;;;1.27;;
5217;SDS011;26539;51.064;6.346;2023-07-20T18:57:23;2.90;;;1.50;;
5217;SDS011;26539;51.064;6.346;2023-07-20T18:59:48;3.27;;;1.30;;